• Join FlightAware (Why Join?)
  • Login
  • US Flag 
01:56AM EDT


 

Airport Tracker/Info


-or-


 

Live Flight TrackerFlight Track Log ✈ SKW5301 ✈ 26-Jun-2013 ✈ KMKE - KDEN

Flight Track Log - Related Links

Times and Time Zones

All times are in EDT time to prevent confusion due to time zone crossing. See the SKW5301 flight status page for this flight to view local times or setup timezone preferences in your user account.

Time Position Orientation Groundspeed Altitude Reporting Facility
EDT Latitude Longitude Course Direction KTS MPH feet Rate Location/Type
12:48PM 42.9167 -87.9000 281° West 159 183 1,500  Level KMKE
12:48PM 42.9103 -87.9200 246° West 174 200 2,300 1,500 Climbing Chicago Center
12:49PM 42.9089 -88.0072 269° West 231 266 3,900 1,800 Climbing Chicago Center
12:50PM 42.8981 -88.1083 262° West 265 305 6,100 1,980 Climbing Chicago Center
12:51PM 42.9333 -88.4640 270° West  Level FlightAware Approximate
12:51PM 42.9119 -88.2108 281° West 284 327 8,100  Level Chicago Center
12:52PM 42.9440 -88.6077 281° West  Level FlightAware Approximate
12:52PM 42.9356 -88.3164 287° West 291 335 10,200  Level Chicago Center
12:53PM 42.9620 -88.7506 281° West  Level FlightAware Approximate
12:53PM 42.9503 -88.4522 278° West 307 353 12,100  Level Chicago Center
12:54PM 42.9444 -88.5811 267° West 340 391 12,900 960 Climbing Chicago Center
12:55PM 42.9417 -88.7186 268° West 358 412 14,100 1,320 Climbing Chicago Center
12:57PM 42.9461 -88.8589 273° West 367 422 15,700 1,200 Climbing Chicago Center
12:58PM 42.9494 -89.0000 272° West 370 426 16,600 1,260 Climbing Chicago Center
12:59PM 42.9514 -89.1631 271° West 368 423 18,400 1,260 Climbing Chicago Center
01:00PM 42.9408 -89.2972 264° West 362 417 19,300 720 Climbing Chicago Center
01:01PM 42.9161 -89.4344 256° West 372 428 20,000 540 Climbing Chicago Center
01:02PM 42.8897 -89.5736 256° West 377 434 20,500 480 Climbing Chicago Center
01:03PM 42.8622 -89.7192 256° West 392 451 21,000 480 Climbing Chicago Center
01:04PM 42.8294 -89.8897 255° West 400 460 21,600 480 Climbing Chicago Center
01:05PM 42.8064 -90.0231 257° West 402 463 22,100 540 Climbing Chicago Center
01:06PM 42.7794 -90.1697 256° West 402 463 22,800 720 Climbing Chicago Center
01:07PM 42.7494 -90.3425 257° West 396 456 23,700 720 Climbing Chicago Center
01:08PM 42.7339 -90.4861 262° West 392 451 24,400 540 Climbing Chicago Center
01:09PM 42.7358 -90.6308 271° West 387 445 24,900 420 Climbing Chicago Center
01:10PM 42.7358 -90.7783 270° West 392 451 25,300 480 Climbing Chicago Center
01:11PM 42.7369 -90.9250 271° West 393 452 25,900 480 Climbing Chicago Center
01:12PM 42.7381 -91.0997 271° West 391 450 26,400 480 Climbing Chicago Center
01:13PM 42.7369 -91.2458 269° West 390 449 26,900 480 Climbing Chicago Center
01:14PM 42.7353 -91.3931 269° West 392 451 27,400 480 Climbing Chicago Center
01:15PM 42.7336 -91.5569 269° West 386 444 28,000 480 Climbing Chicago Center
01:16PM 42.7339 -91.7061 270° West 391 450 28,500 480 Climbing Chicago Center
01:17PM 42.7328 -91.8444 269° West 393 452 29,000 480 Climbing Chicago Center
01:18PM 42.7308 -91.9861 269° West 382 440 29,500 480 Climbing Chicago Center
01:19PM 42.7297 -92.1000 269° West 379 436 29,900 240 Climbing Chicago Center
01:20PM 42.7283 -92.2669 269° West 373 429 30,000  Climbing Chicago Center
01:21PM 42.7258 -92.4106 269° West 381 438 30,000 240 Level Chicago Center
01:22PM 42.7242 -92.5558 269° West 387 445 30,500 420 Climbing Chicago Center
01:23PM 42.7231 -92.6711 269° West 383 441 30,900 480 Climbing Minneapolis Center
01:24PM 42.7200 -92.8661 269° West 377 434 31,600 480 Climbing Chicago Center
01:25PM 42.7172 -93.0050 268° West 372 428 32,000 180 Climbing Chicago Center
01:26PM 42.7147 -93.1439 269° West 372 428 32,000  Level Chicago Center
01:27PM 42.7172 -93.2583 272° West 378 435 32,000  Level Minneapolis Center
01:28PM 42.7253 -93.4006 274° West 381 438 32,000  Level Minneapolis Center
01:29PM 42.7356 -93.5728 275° West 383 441 32,000  Level Minneapolis Center
01:30PM 42.7467 -93.7178 276° West 388 447 32,000  Level Minneapolis Center
01:31PM 42.7583 -93.8622 276° West 388 447 32,000  Level Minneapolis Center
01:32PM 42.7706 -94.0069 277° West 389 448 32,000  Level Minneapolis Center
01:33PM 42.7836 -94.1511 277° West 389 448 32,000  Level Minneapolis Center
01:34PM 42.7794 -94.3261 268° West 389 448 32,000  Level Minneapolis Center
01:35PM 42.7725 -94.4733 266° West 393 452 32,000  Level Minneapolis Center
01:37PM 42.7658 -94.6133 266° West 395 455 32,000  Level Minneapolis Center
01:38PM 42.7556 -94.7897 266° West 391 450 32,000  Level Minneapolis Center
01:39PM 42.7469 -94.9392 266° West 396 456 32,000  Level Minneapolis Center
01:40PM 42.7386 -95.0886 266° West 395 455 32,000  Level Minneapolis Center
01:41PM 42.7294 -95.2389 265° West 398 458 32,000  Level Minneapolis Center
01:42PM 42.7206 -95.3844 265° West 396 456 32,000  Level Minneapolis Center
01:43PM 42.7106 -95.5594 266° West 390 449 32,000  Level Minneapolis Center
01:44PM 42.7006 -95.7089 265° West 394 453 32,000  Level Minneapolis Center
01:45PM 42.6903 -95.8578 265° West 396 456 32,000  Level Minneapolis Center
01:46PM 42.6811 -96.0078 265° West 398 458 32,000  Level Minneapolis Center
01:47PM 42.6714 -96.1578 265° West 399 459 32,000  Level Minneapolis Center
01:48PM 42.6608 -96.3061 265° West 397 457 32,000  Level Minneapolis Center
01:49PM 42.6492 -96.4839 265° West 396 456 32,000  Level Minneapolis Center
01:50PM 42.6375 -96.6331 264° West 398 458 32,000  Level Minneapolis Center
01:51PM 42.6272 -96.7800 265° West 395 455 32,000  Level Minneapolis Center
01:52PM 42.6172 -96.9272 265° West 393 452 32,000  Level Minneapolis Center
01:53PM 42.6047 -97.0739 263° West 393 452 32,000  Level Minneapolis Center
01:54PM 42.5825 -97.2472 260° West 392 451 32,000  Level Minneapolis Center
01:55PM 42.5417 -97.3878 249° West 402 463 32,000  Level Minneapolis Center
01:56PM 42.5022 -97.5281 249° West 400 460 32,000  Level Minneapolis Center
01:57PM 42.4619 -97.6675 249° West 400 460 32,000  Level Minneapolis Center
01:58PM 42.4211 -97.8075 248° West 400 460 32,000  Level Minneapolis Center
01:59PM 42.3808 -97.9461 249° West 400 460 32,000  Level Minneapolis Center
02:00PM 42.3325 -98.1150 249° West 402 463 32,000  Level Minneapolis Center
02:01PM 42.2903 -98.2547 248° West 402 463 32,000  Level Minneapolis Center
02:02PM 42.2494 -98.3942 248° West 403 464 32,000  Level Minneapolis Center
02:03PM 42.2086 -98.5356 249° West 404 465 32,000  Level Minneapolis Center
02:04PM 42.1656 -98.6753 247° West 405 466 32,000  Level Minneapolis Center
02:06PM 42.1247 -98.8167 249° West 405 466 32,000  Level Minneapolis Center
02:07PM 42.0728 -98.9853 248° West 408 470 32,000  Level Minneapolis Center
02:08PM 42.0308 -99.1261 248° West 407 468 32,000  Level Minneapolis Center
02:09PM 41.9875 -99.2678 248° West 410 472 32,000  Level Minneapolis Center
02:10PM 41.9433 -99.4094 247° West 411 473 32,000  Level Minneapolis Center
02:11PM 41.8933 -99.5697 247° West 409 471 32,000  Level Denver Center
02:12PM 41.8447 -99.7292 248° West 413 475 32,000  Level Denver Center
02:13PM 41.8042 -99.8658 248° West 414 476 32,000  Level Denver Center
02:14PM 41.7464 -100.0444 247° West 412 474 32,000  Level Denver Center
02:15PM 41.6983 -100.2031 248° West 412 474 32,000  Level Denver Center
02:16PM 41.6550 -100.3361 246° West 412 474 32,000  Level Denver Center
02:17PM 41.6050 -100.4944 247° West 414 476 32,000  Level Denver Center
02:18PM 41.5625 -100.6292 247° West 414 476 32,000  Level Denver Center
02:19PM 41.5122 -100.7861 247° West 414 476 32,000  Level Denver Center
02:20PM 41.4708 -100.9219 248° West 415 478 32,000  Level Denver Center
02:21PM 41.4233 -101.0814 248° West 417 480 32,000  Level Denver Center
02:22PM 41.3792 -101.2167 247° West 419 482 32,000  Level Denver Center
02:23PM 41.3247 -101.3725 245° Southwest 418 481 32,000  Level Denver Center
02:24PM 41.2783 -101.5056 245° Southwest 417 480 32,000  Level Denver Center
02:25PM 41.2306 -101.6381 244° Southwest 418 481 32,000  Level Denver Center
02:27PM 41.1753 -101.7931 245° Southwest 417 480 32,000  Level Denver Center
02:28PM 41.1281 -101.9261 245° Southwest 418 481 32,000  Level Denver Center
02:29PM 41.0733 -102.0794 245° Southwest 413 475 32,000  Level Denver Center
02:30PM 41.0250 -102.2125 244° Southwest 417 480 32,000  Level Denver Center
02:31PM 40.9681 -102.3678 244° Southwest 420 483 32,000 -480 Level Denver Center
02:32PM 40.9214 -102.5025 245° Southwest 422 486 31,100 -960 Descending Denver Center
02:33PM 40.8606 -102.6619 243° Southwest 433 498 30,000 -540 Descending Denver Center
02:34PM 40.8106 -102.7992 244° Southwest 434 499 30,000  Level Denver Center
02:35PM 40.7517 -102.9586 244° Southwest 434 499 30,000  Level Denver Center
02:36PM 40.7036 -103.0906 244° Southwest 431 496 30,000  Level Denver Center
02:37PM 40.6492 -103.2322 243° Southwest 434 499 30,000  Level Denver Center
02:38PM 40.5878 -103.4008 244° Southwest 426 490 30,000 -720 Level Denver Center
02:39PM 40.5328 -103.5425 243° Southwest 435 501 28,600 -2,040 Descending Denver Center
02:40PM 40.4789 -103.6881 244° Southwest 443 510 25,800 -2,820 Descending Denver Center
02:41PM 40.4172 -103.8458 243° Southwest 451 519 22,800 -2,400 Descending Denver Center
02:42PM 40.3675 -103.9778 244° Southwest 408 470 20,900 -1,500 Descending Denver Center
02:43PM 40.2967 -104.0700 225° Southwest 331 381 19,700 -1,500 Descending Denver Center
02:44PM 40.2253 -104.1456 219° Southwest 331 381 17,800 -1,800 Descending Denver Center
02:45PM 40.1550 -104.2253 221° Southwest 311 358 16,100 -1,440 Descending Denver Center
02:46PM 40.0906 -104.2942 219° Southwest 300 345 14,900 -1,020 Descending Denver Center
02:47PM 40.0256 -104.3647 220° Southwest 301 346 14,100 -780 Descending Denver Center
02:48PM 39.9558 -104.4389 219° Southwest 298 343 13,300 -1,260 Descending Denver Center
02:49PM 39.8894 -104.4986 215° Southwest 293 337 11,500 -1,140 Descending Denver Center
02:50PM 39.8239 -104.5019 182° South 276 318 11,000 -900 Descending Denver Center
02:51PM 39.7381 -104.5128 186° South 252 290 9,700 -1,200 Descending Denver Center
02:52PM 39.6889 -104.5653 219° Southwest 238 274 8,500 -1,020 Descending Denver Center
02:53PM 39.7114 -104.6314 294° West 213 245 7,700 -780 Descending Denver Center